createdAt,value
2022-09-17T05:08:50.843Z,0.95
2022-09-17T05:11:20.470Z,1.20
2022-09-17T05:13:48.362Z,1.20
2022-09-17T05:16:15.541Z,1.63
2022-09-17T05:19:33.738Z,1.02
2022-09-17T05:25:56.715Z,1.20
2022-09-17T05:28:25.466Z,1.00
2022-09-17T05:30:53.133Z,0.90
2022-09-17T06:02:03.186Z,1.27
2022-09-17T06:04:34.899Z,1.55
2022-09-17T08:21:09.568Z,1.55
2022-09-17T08:24:08.869Z,1.33
2022-09-17T08:29:37.734Z,2.22
2022-09-17T08:42:54.653Z,1.52
2022-09-17T08:50:26.985Z,1.40
2022-09-17T09:09:18.617Z,1.25
2022-09-17T10:12:04.273Z,1.20
2022-09-17T10:15:08.683Z,1.35
2022-09-17T10:17:45.912Z,1.40
2022-09-17T10:20:23.498Z,1.45
2022-09-17T10:22:52.206Z,1.65
2022-09-17T10:25:41.436Z,1.30
2022-09-17T10:32:02.060Z,1.38
2022-09-17T10:34:30.766Z,1.33
2022-09-17T10:36:58.701Z,1.30
2022-09-17T10:39:36.639Z,1.35
2022-09-17T10:42:22.257Z,1.45
2022-09-17T10:44:56.524Z,1.58
2022-09-17T10:47:31.601Z,1.33
2022-09-17T10:50:06.576Z,1.27
2022-09-17T10:52:34.882Z,1.50
2022-09-17T10:55:05.637Z,1.83
2022-09-17T10:57:51.537Z,1.50
2022-09-17T11:00:21.928Z,2.38
2022-09-17T11:03:13.465Z,1.58
2022-09-17T11:06:08.641Z,1.13
2022-09-17T11:09:06.697Z,1.45
2022-09-17T11:11:52.441Z,1.27
2022-09-17T11:15:08.874Z,1.20
2022-09-17T11:18:29.403Z,1.33
2022-09-17T11:21:14.201Z,1.88
2022-09-17T11:23:53.440Z,1.25
2022-09-17T11:26:45.094Z,1.20
2022-09-17T11:29:18.128Z,1.52
2022-09-17T11:32:22.866Z,1.60
2022-09-17T11:35:14.736Z,1.02
2022-09-17T11:37:49.258Z,1.73
2022-09-17T11:59:17.887Z,0.98
2022-09-17T13:07:43.402Z,1.95
2022-09-17T13:11:05.370Z,2.33
2022-09-17T13:20:59.850Z,2.03
2022-09-17T13:31:02.874Z,2.08
2022-09-17T14:13:58.941Z,2.03
2022-09-17T14:17:02.542Z,2.42
2022-09-17T14:19:52.606Z,2.03
2022-09-17T14:25:53.545Z,1.63
2022-09-17T14:28:48.678Z,1.85
2022-09-17T14:31:30.553Z,2.10
2022-09-17T14:34:12.728Z,2.25
2022-09-17T14:39:53.606Z,3.42
2022-09-17T14:42:26.105Z,3.83
2022-09-17T14:48:46.505Z,2.88
2022-09-17T14:51:47.412Z,2.58
2022-09-17T15:00:52.252Z,1.55
2022-09-17T15:03:23.224Z,1.42
2022-09-17T15:08:50.991Z,1.00
2022-09-17T15:11:21.740Z,1.05
2022-09-17T15:16:56.593Z,1.00
2022-09-17T15:23:20.297Z,0.98
2022-09-17T15:25:47.912Z,1.10
2022-09-17T15:28:46.590Z,1.25
2022-09-17T15:31:20.327Z,1.15
2022-09-17T15:33:47.732Z,1.15
2022-09-17T15:36:23.630Z,1.10
2022-09-17T15:39:41.479Z,1.60
2022-09-17T15:42:31.084Z,1.80
2022-09-17T15:45:20.749Z,1.73
2022-09-17T17:40:09.926Z,2.17
2022-09-17T18:00:27.141Z,2.50
2022-09-17T18:02:58.458Z,2.10
2022-09-17T18:05:25.851Z,2.47
2022-09-17T18:08:00.160Z,3.03
2022-09-17T18:10:31.130Z,2.95
2022-09-17T18:13:07.273Z,2.22
2022-09-17T18:15:34.435Z,2.33
2022-09-17T18:22:56.198Z,2.65
2022-09-17T18:25:23.757Z,3.50
2022-09-17T18:27:54.135Z,2.65
2022-09-17T18:30:21.857Z,3.50
2022-09-17T18:32:51.738Z,2.90
2022-09-17T18:35:34.188Z,3.08
2022-09-17T18:38:02.520Z,2.20
2022-09-17T18:40:29.581Z,2.22
2022-09-17T18:42:58.006Z,3.00
2022-09-17T18:45:31.542Z,2.33
2022-09-17T19:02:08.986Z,3.00
2022-09-17T19:38:55.411Z,0.80
2022-09-17T19:42:31.294Z,0.63
2022-09-17T19:45:28.744Z,0.70
2022-09-17T19:55:41.715Z,0.70
2022-09-17T20:01:53.351Z,0.90
2022-09-17T20:04:35.287Z,0.80
2022-09-17T20:07:14.567Z,1.10
2022-09-17T20:10:39.313Z,0.65
2022-09-17T20:13:12.946Z,0.80
2022-09-17T20:15:48.831Z,0.73
2022-09-17T20:18:43.389Z,0.75
2022-09-17T21:00:08.642Z,1.60
2022-09-17T21:06:49.566Z,1.10
2022-09-17T21:40:22.352Z,1.00
2022-09-17T21:42:51.442Z,0.80
2022-09-17T21:45:25.486Z,0.98
2022-09-17T21:50:47.097Z,0.95
2022-09-17T21:53:19.794Z,0.80
2022-09-17T21:55:51.172Z,0.90
2022-09-17T21:58:26.627Z,1.38
2022-09-17T22:04:53.517Z,1.45
2022-09-17T22:07:31.058Z,0.93
2022-09-17T22:16:48.434Z,1.10
2022-09-17T22:22:43.728Z,1.10
2022-09-17T22:25:16.813Z,1.05
2022-09-17T22:28:03.979Z,1.20
2022-09-17T22:30:32.646Z,0.90
2022-09-17T22:36:18.511Z,1.40
2022-09-17T22:38:55.943Z,1.30
2022-09-17T22:44:33.462Z,1.47
2022-09-17T22:47:03.418Z,1.08
2022-09-17T22:49:36.368Z,1.33
2022-09-17T22:52:07.782Z,1.73
2022-09-17T22:54:38.659Z,1.15
2022-09-17T22:57:14.639Z,1.25
2022-09-17T23:05:54.620Z,1.23
2022-09-17T23:14:57.734Z,1.15
2022-09-17T23:21:00.483Z,1.25
2022-09-17T23:23:30.923Z,1.10
2022-09-17T23:26:04.351Z,1.40
2022-09-17T23:28:32.489Z,1.00
2022-09-17T23:34:02.566Z,1.63
2022-09-17T23:36:40.534Z,1.63
2022-09-17T23:59:30.981Z,1.15
